CheckWX is a tool to help pilots better visualize weather data.  It is not intended as a substitute for an official pre-flight weather briefing.

12:24:22 UTC

KFOZ METAR
Bigfork Municipal Airport
Bigfork, Minnesota, USA
Current

31 mins ago

KFOZ 271153Z AUTO 32003KT 10SM OVC004 M09/M10 A3006 RMK AO2
Observed
Jan-27 @ 11:53 UTC
Wind
  • 320° at 3 KTS
Visibility
10 SM
Flight Rules
LIFR
Cloud Levels
  • Overcast at 400' AGL
Temperature
-9°C / 16°F
Dewpoint
-10°C / 14°F
Humidity
93%
Altimeter
30.06" Hg
Pressure
1017.92 hPa
Previous

50 mins ago

KFOZ 271134Z AUTO 00000KT 7SM OVC004 M09/M10 A3006 RMK AO2
Observed
Jan-27 @ 11:34 UTC
Visibility
7 SM
Flight Rules
LIFR
Cloud Levels
  • Overcast at 400' AGL
Temperature
-9°C / 16°F
Dewpoint
-10°C / 14°F
Humidity
93%
Altimeter
30.06" Hg
Pressure
1017.92 hPa
Previous

1 hour ago

KFOZ 271114Z AUTO 00000KT 7SM OVC004 M09/M10 A3005 RMK AO2
Observed
Jan-27 @ 11:14 UTC
Visibility
7 SM
Flight Rules
LIFR
Cloud Levels
  • Overcast at 400' AGL
Temperature
-9°C / 16°F
Dewpoint
-10°C / 14°F
Humidity
93%
Altimeter
30.05" Hg
Pressure
1017.62 hPa